Time;durP1;ratioP1;P1;durP2;ratioP2;P2;SDS_P1;SDS_P2;PMS_P1;PMS_P2;Temp;Humidity;BMP_temperature;BMP_pressure;BME280_temperature;BME280_humidity;BME280_pressure;Samples;Min_cycle;Max_cycle;Signal;HPM_P1;HPM_P2
2020/12/29 00:00:40;;;;;;;25.77;15.68;;;2.50;99.90;;;;;;5072831;28;20032;-81
2020/12/29 00:03:06;;;;;;;27.40;15.77;;;2.50;99.90;;;;;;5072588;28;20028;-80
2020/12/29 00:05:31;;;;;;;25.10;14.55;;;2.50;99.90;;;;;;5072543;28;20024;-81
2020/12/29 00:07:57;;;;;;;26.88;15.50;;;2.40;99.90;;;;;;5072538;28;20028;-81
2020/12/29 00:10:24;;;;;;;27.48;14.85;;;2.40;99.90;;;;;;5072606;28;20020;-81
2020/12/29 00:12:50;;;;;;;25.50;14.65;;;2.40;99.90;;;;;;5072230;28;20506;-81
2020/12/29 00:15:16;;;;;;;29.80;16.42;;;2.40;99.90;;;;;;5072247;28;20040;-80
2020/12/29 00:17:42;;;;;;;31.38;17.60;;;2.40;99.90;;;;;;5072467;28;20425;-82
2020/12/29 00:20:08;;;;;;;27.75;15.90;;;2.50;99.90;;;;;;5072388;28;20025;-81
2020/12/29 00:22:35;;;;;;;29.30;16.63;;;2.50;99.90;;;;;;5072235;28;20380;-80
2020/12/29 00:25:01;;;;;;;28.60;16.30;;;2.50;99.90;;;;;;5072190;28;20365;-80
2020/12/29 00:27:27;;;;;;;29.58;15.30;;;2.60;99.90;;;;;;5071993;28;20038;-81
2020/12/29 00:29:52;;;;;;;35.00;17.13;;;2.60;99.90;;;;;;5072298;28;20086;-81
2020/12/29 00:32:20;;;;;;;31.33;16.70;;;2.60;99.90;;;;;;5071954;28;20100;-80
2020/12/29 00:34:49;;;;;;;34.47;17.75;;;2.60;99.90;;;;;;5071977;28;20077;-80
2020/12/29 00:37:15;;;;;;;30.83;15.02;;;2.60;99.90;;;;;;5072131;28;20017;-81
2020/12/29 00:39:42;;;;;;;29.20;16.13;;;2.60;99.90;;;;;;5054263;28;20028;-81
2020/12/29 00:42:08;;;;;;;40.28;17.50;;;2.60;99.90;;;;;;5071763;28;20024;-81
2020/12/29 00:44:34;;;;;;;30.90;17.33;;;2.70;99.90;;;;;;5053791;28;20081;-80
2020/12/29 00:46:59;;;;;;;30.15;16.67;;;2.70;99.90;;;;;;5072008;28;20103;-81
2020/12/29 00:49:25;;;;;;;28.25;16.63;;;2.80;99.90;;;;;;5072066;28;20099;-81
2020/12/29 00:51:54;;;;;;;37.38;19.15;;;2.90;99.90;;;;;;5053905;28;20078;-81
2020/12/29 00:54:20;;;;;;;29.52;17.02;;;2.90;99.90;;;;;;5071620;28;20043;-80
2020/12/29 00:56:46;;;;;;;31.85;17.25;;;2.90;99.90;;;;;;5071476;28;20047;-80
2020/12/29 00:59:12;;;;;;;31.63;17.17;;;2.90;99.90;;;;;;5071878;28;20043;-81
2020/12/29 01:01:37;;;;;;;28.73;16.17;;;2.90;99.90;;;;;;5053947;28;20476;-81
2020/12/29 01:04:03;;;;;;;30.08;17.23;;;2.90;99.90;;;;;;5053519;28;20082;-80
2020/12/29 01:06:30;;;;;;;28.90;16.40;;;2.90;99.90;;;;;;5053880;28;20028;-81
2020/12/29 01:08:56;;;;;;;33.17;17.40;;;2.90;99.90;;;;;;5071510;28;20111;-81
2020/12/29 01:11:21;;;;;;;32.40;16.23;;;3.00;99.90;;;;;;5071484;28;20488;-81
2020/12/29 01:13:47;;;;;;;30.75;16.90;;;3.00;99.90;;;;;;5071268;28;20044;-80
2020/12/29 01:16:13;;;;;;;28.63;15.88;;;3.00;99.90;;;;;;5071722;28;20119;-81
2020/12/29 01:18:39;;;;;;;33.65;16.70;;;3.00;99.90;;;;;;5071597;28;20031;-80
2020/12/29 01:21:09;;;;;;;32.60;16.52;;;3.00;99.90;;;;;;5071674;28;20056;-80
2020/12/29 01:23:35;;;;;;;36.85;18.63;;;3.10;99.90;;;;;;5071314;28;20028;-80
2020/12/29 01:26:01;;;;;;;28.48;16.77;;;3.10;99.90;;;;;;5071538;28;20554;-81
2020/12/29 01:28:26;;;;;;;31.75;17.33;;;3.10;99.90;;;;;;5071345;28;20032;-81
2020/12/29 01:30:52;;;;;;;32.33;19.38;;;3.10;99.90;;;;;;5071512;28;20040;-80
2020/12/29 01:33:18;;;;;;;33.08;18.65;;;3.00;99.90;;;;;;5053227;28;20032;-81
2020/12/29 01:35:44;;;;;;;35.88;18.25;;;3.00;99.90;;;;;;5053532;28;20111;-81
2020/12/29 01:38:09;;;;;;;30.00;17.88;;;3.00;99.90;;;;;;5053495;28;20024;-80
2020/12/29 01:40:35;;;;;;;32.20;17.42;;;3.00;99.90;;;;;;5053809;28;20028;-80
2020/12/29 01:43:02;;;;;;;31.75;17.13;;;3.10;99.90;;;;;;5053341;28;20115;-80
2020/12/29 01:45:27;;;;;;;39.67;19.13;;;3.10;99.90;;;;;;5071254;28;20027;-81
2020/12/29 01:47:54;;;;;;;38.00;19.85;;;3.10;99.90;;;;;;5071384;28;20100;-80
2020/12/29 01:50:22;;;;;;;35.70;19.63;;;3.20;99.90;;;;;;5053564;28;20074;-80
2020/12/29 01:53:01;;;;;;;39.88;18.85;;;3.10;99.90;;;;;;5071035;28;20481;-80
2020/12/29 01:55:29;;;;;;;31.85;18.70;;;3.20;99.90;;;;;;5071220;28;20027;-80
2020/12/29 01:57:59;;;;;;;39.22;19.75;;;3.20;99.90;;;;;;5071027;28;20029;-81
2020/12/29 02:00:25;;;;;;;31.52;19.27;;;3.20;99.90;;;;;;5071429;28;20383;-81
2020/12/29 02:02:51;;;;;;;35.63;20.20;;;3.20;99.90;;;;;;5071023;28;20028;-81
2020/12/29 02:05:17;;;;;;;41.13;20.75;;;3.20;99.90;;;;;;5070955;28;20039;-81
2020/12/29 02:07:43;;;;;;;36.38;18.77;;;3.30;99.90;;;;;;5071074;28;20495;-81
2020/12/29 02:10:08;;;;;;;37.00;19.83;;;3.30;99.90;;;;;;5053409;28;20036;-81
2020/12/29 02:12:36;;;;;;;35.63;19.60;;;3.30;99.90;;;;;;5070932;28;20041;-81
2020/12/29 02:15:06;;;;;;;40.33;19.63;;;3.30;99.90;;;;;;5070764;28;20062;-81
2020/12/29 02:17:32;;;;;;;32.67;19.95;;;3.30;99.90;;;;;;5071107;28;20028;-80
2020/12/29 02:19:58;;;;;;;38.33;20.20;;;3.40;99.90;;;;;;5052993;28;20392;-80
2020/12/29 02:22:26;;;;;;;38.22;20.00;;;3.40;99.90;;;;;;5073795;28;20028;-81
2020/12/29 02:24:56;;;;;;;42.13;20.92;;;3.40;99.90;;;;;;5056484;28;20048;-80
2020/12/29 02:27:24;;;;;;;40.08;20.65;;;3.40;99.90;;;;;;5056676;28;20050;-80
2020/12/29 02:29:50;;;;;;;35.88;20.88;;;3.40;99.90;;;;;;5056694;28;20063;-80
2020/12/29 02:32:16;;;;;;;38.83;19.92;;;3.50;99.90;;;;;;5056270;28;20036;-80
2020/12/29 02:34:42;;;;;;;37.17;20.63;;;3.40;99.90;;;;;;5056171;28;20037;-81
2020/12/29 02:37:09;;;;;;;43.08;22.85;;;3.50;99.90;;;;;;5056443;28;20030;-80
2020/12/29 02:39:41;;;;;;;41.33;21.38;;;3.50;99.90;;;;;;5074375;28;20105;-81
2020/12/29 02:42:08;;;;;;;37.75;20.80;;;3.50;99.90;;;;;;5074162;28;20488;-80
2020/12/29 02:44:34;;;;;;;40.35;20.75;;;3.50;99.90;;;;;;5074050;28;20027;-81
2020/12/29 02:47:00;;;;;;;44.17;22.45;;;3.50;99.90;;;;;;5056071;28;20028;-81
2020/12/29 02:49:26;;;;;;;42.08;21.60;;;3.60;99.90;;;;;;5074237;28;20077;-80
2020/12/29 02:51:51;;;;;;;42.47;21.83;;;3.60;99.90;;;;;;5073816;28;20025;-80
2020/12/29 02:54:17;;;;;;;44.35;22.83;;;3.60;99.90;;;;;;5073599;28;20106;-80
2020/12/29 02:56:43;;;;;;;49.28;24.02;;;3.60;99.90;;;;;;5055808;28;20492;-80
2020/12/29 02:59:09;;;;;;;48.63;25.17;;;3.70;99.90;;;;;;5073957;28;20025;-81
2020/12/29 03:01:35;;;;;;;42.67;24.30;;;3.70;99.90;;;;;;5073495;28;20024;-81
2020/12/29 03:04:01;;;;;;;46.13;23.90;;;3.70;99.90;;;;;;5073742;28;20550;-81
2020/12/29 03:06:27;;;;;;;44.35;25.45;;;3.70;99.90;;;;;;5073917;28;20025;-81
2020/12/29 03:08:53;;;;;;;39.10;23.60;;;3.70;99.90;;;;;;5073709;28;20032;-81
2020/12/29 03:11:29;;;;;;;48.13;24.73;;;3.70;99.90;;;;;;5073338;28;20028;-80
2020/12/29 03:13:57;;;;;;;51.72;25.70;;;3.70;99.90;;;;;;5061456;28;20060;-81
2020/12/29 03:16:23;;;;;;;60.00;27.77;;;3.80;99.90;;;;;;5073718;28;20027;-80
2020/12/29 03:18:49;;;;;;;48.83;26.58;;;3.80;99.90;;;;;;5055645;28;20481;-81
2020/12/29 03:21:15;;;;;;;56.92;25.77;;;3.80;99.90;;;;;;5073158;28;20039;-81
2020/12/29 03:23:41;;;;;;;49.55;27.10;;;3.80;99.90;;;;;;5054440;28;20029;-80
2020/12/29 03:26:07;;;;;;;55.03;28.38;;;3.80;99.90;;;;;;5072781;28;20024;-80
2020/12/29 03:28:33;;;;;;;57.92;27.40;;;3.70;99.90;;;;;;5055287;28;20028;-81
2020/12/29 03:30:59;;;;;;;52.13;26.92;;;3.80;99.90;;;;;;5073376;28;20032;-81
2020/12/29 03:33:24;;;;;;;61.00;27.58;;;3.80;99.90;;;;;;5054904;28;20538;-81
2020/12/29 03:35:50;;;;;;;59.80;29.55;;;3.70;99.90;;;;;;5073130;28;20063;-80
2020/12/29 03:38:15;;;;;;;56.88;28.27;;;3.70;99.90;;;;;;5073241;28;20027;-81
2020/12/29 03:40:41;;;;;;;62.05;30.05;;;3.70;99.90;;;;;;5055341;28;20024;-80
2020/12/29 03:43:12;;;;;;;56.03;29.98;;;3.70;99.90;;;;;;5072990;28;20103;-81
2020/12/29 03:45:48;;;;;;;62.15;30.17;;;3.70;99.90;;;;;;5072939;28;20476;-81
2020/12/29 03:48:17;;;;;;;52.90;28.20;;;3.70;99.90;;;;;;5073040;28;20468;-80
2020/12/29 03:50:43;;;;;;;63.78;32.60;;;3.80;99.90;;;;;;5055183;28;20104;-80
2020/12/29 03:53:09;;;;;;;59.38;30.98;;;3.80;99.90;;;;;;5072665;28;20024;-80
2020/12/29 03:55:36;;;;;;;62.55;31.23;;;3.80;99.90;;;;;;5072604;28;20024;-80
2020/12/29 03:58:03;;;;;;;66.20;33.85;;;3.80;99.90;;;;;;5054715;28;20029;-80
2020/12/29 04:00:29;;;;;;;63.33;34.00;;;3.80;99.90;;;;;;5054978;28;20627;-80
2020/12/29 04:02:54;;;;;;;62.80;34.45;;;3.80;99.90;;;;;;5072594;28;20115;-80
2020/12/29 04:05:20;;;;;;;66.57;34.95;;;3.80;99.90;;;;;;5054630;28;20028;-80
2020/12/29 04:07:46;;;;;;;65.15;32.60;;;3.80;99.90;;;;;;5072503;28;20032;-80
2020/12/29 04:10:11;;;;;;;69.80;36.17;;;3.80;99.90;;;;;;5072982;28;20025;-80
2020/12/29 04:12:38;;;;;;;67.65;34.50;;;3.80;99.90;;;;;;5054450;28;20558;-80
2020/12/29 04:15:05;;;;;;;70.60;34.75;;;3.80;99.90;;;;;;5054377;28;20107;-80
2020/12/29 04:17:35;;;;;;;71.93;35.55;;;3.80;99.90;;;;;;5054489;28;20024;-80
2020/12/29 04:20:01;;;;;;;67.88;34.97;;;3.80;99.90;;;;;;5072367;28;20020;-80
2020/12/29 04:22:33;;;;;;;71.35;36.25;;;3.70;99.90;;;;;;5072228;28;20027;-80
2020/12/29 04:24:59;;;;;;;59.95;32.42;;;3.70;99.90;;;;;;5072091;28;20024;-81
2020/12/29 04:27:25;;;;;;;66.18;36.22;;;3.70;99.90;;;;;;5054221;28;20119;-79
2020/12/29 04:29:51;;;;;;;72.30;35.33;;;3.70;99.90;;;;;;5072376;28;20056;-81
2020/12/29 04:32:18;;;;;;;70.93;37.30;;;3.70;99.90;;;;;;5071983;28;20523;-81
2020/12/29 04:34:44;;;;;;;64.93;34.88;;;3.60;99.90;;;;;;5071767;28;20029;-81
2020/12/29 04:37:10;;;;;;;70.25;34.90;;;3.60;99.90;;;;;;5072166;28;20021;-81
2020/12/29 04:39:35;;;;;;;61.33;32.97;;;3.70;99.90;;;;;;5072057;28;20085;-82
2020/12/29 04:42:08;;;;;;;68.57;35.08;;;3.60;99.90;;;;;;5053769;28;20052;-80
2020/12/29 04:44:34;;;;;;;64.00;32.08;;;3.60;99.90;;;;;;5071530;28;20082;-81
2020/12/29 04:47:00;;;;;;;66.38;33.35;;;3.60;99.90;;;;;;5071995;28;20041;-81
2020/12/29 04:49:26;;;;;;;61.72;32.70;;;3.60;99.90;;;;;;5054089;28;20111;-81
2020/12/29 04:51:56;;;;;;;70.90;31.00;;;3.60;99.90;;;;;;5071708;28;20058;-80
2020/12/29 04:54:25;;;;;;;67.00;32.55;;;3.60;99.90;;;;;;5053811;28;20495;-80
2020/12/29 04:56:57;;;;;;;64.38;31.55;;;3.60;99.90;;;;;;5053698;28;20066;-80
2020/12/29 04:59:22;;;;;;;63.00;30.50;;;3.60;99.90;;;;;;5071834;28;20025;-81
2020/12/29 05:01:48;;;;;;;56.03;29.42;;;3.70;99.90;;;;;;5053918;28;20048;-80
2020/12/29 05:04:16;;;;;;;59.88;29.38;;;3.50;99.90;;;;;;5071431;28;20107;-80
2020/12/29 05:06:41;;;;;;;57.97;28.77;;;3.50;99.90;;;;;;5053819;28;20572;-80
2020/12/29 05:09:07;;;;;;;61.08;28.73;;;3.50;99.90;;;;;;5071677;28;20060;-80
2020/12/29 05:11:34;;;;;;;58.92;28.75;;;3.40;99.90;;;;;;5053549;28;20043;-80
2020/12/29 05:14:03;;;;;;;61.05;31.20;;;3.40;99.90;;;;;;5053405;28;20537;-80
2020/12/29 05:16:29;;;;;;;55.38;28.98;;;3.40;99.90;;;;;;5071854;28;20028;-81
2020/12/29 05:18:56;;;;;;;55.20;30.30;;;3.50;99.90;;;;;;5071586;28;20028;-81
2020/12/29 05:21:25;;;;;;;68.38;31.50;;;3.40;99.90;;;;;;5071603;28;20094;-80
2020/12/29 05:23:50;;;;;;;56.55;29.95;;;3.40;99.90;;;;;;5071207;28;20032;-81
2020/12/29 05:26:18;;;;;;;68.10;32.92;;;3.40;99.90;;;;;;5053671;28;20025;-80
2020/12/29 05:28:46;;;;;;;58.97;31.92;;;3.40;99.90;;;;;;5071466;28;20040;-79
2020/12/29 05:31:12;;;;;;;55.55;30.60;;;3.40;99.90;;;;;;5071588;28;20515;-80
2020/12/29 05:33:39;;;;;;;59.40;29.40;;;3.40;99.90;;;;;;5071077;28;20036;-80
2020/12/29 05:36:05;;;;;;;57.70;31.58;;;3.40;99.90;;;;;;5071505;28;20021;-80
2020/12/29 05:38:31;;;;;;;67.10;32.55;;;3.40;99.90;;;;;;5071465;28;20033;-81
2020/12/29 05:40:57;;;;;;;59.92;33.30;;;3.40;99.90;;;;;;5053580;28;20028;-80
2020/12/29 05:43:30;;;;;;;55.63;32.25;;;3.30;99.90;;;;;;5071214;28;20021;-81
2020/12/29 05:46:12;;;;;;;58.65;31.27;;;3.40;99.90;;;;;;5071381;28;20019;-80
2020/12/29 05:48:38;;;;;;;56.15;30.75;;;3.40;99.90;;;;;;5071379;28;20503;-79
2020/12/29 05:51:14;;;;;;;51.13;28.67;;;3.30;99.90;;;;;;5071475;28;20044;-80
2020/12/29 05:53:39;;;;;;;56.63;30.52;;;3.30;99.90;;;;;;5052991;28;20040;-79
2020/12/29 05:56:08;;;;;;;57.33;30.70;;;3.30;99.90;;;;;;5072297;28;20017;-80
2020/12/29 05:58:35;;;;;;;59.30;30.23;;;3.30;99.90;;;;;;5074848;28;20021;-80
2020/12/29 06:01:01;;;;;;;49.40;28.17;;;3.30;99.90;;;;;;5075097;28;20033;-80
2020/12/29 06:03:29;;;;;;;52.70;28.73;;;3.30;99.90;;;;;;5056969;28;20035;-80
2020/12/29 06:05:58;;;;;;;46.60;25.50;;;3.30;99.90;;;;;;5056984;28;20028;-80
2020/12/29 06:08:27;;;;;;;45.13;25.65;;;3.20;99.90;;;;;;5074863;28;20029;-80
2020/12/29 06:11:04;;;;;;;34.85;21.23;;;3.20;99.90;;;;;;5075016;28;20024;-81
2020/12/29 06:13:38;;;;;;;41.92;22.00;;;3.30;99.90;;;;;;5074486;28;20069;-80
2020/12/29 06:16:04;;;;;;;34.97;20.45;;;3.10;99.90;;;;;;5074890;28;20427;-80
2020/12/29 06:18:35;;;;;;;36.70;19.85;;;3.10;99.90;;;;;;5049044;28;20032;-81
2020/12/29 06:21:06;;;;;;;35.53;20.25;;;3.10;99.90;;;;;;5053019;28;20025;-80
2020/12/29 06:23:41;;;;;;;32.78;19.05;;;3.10;99.90;;;;;;5051710;28;20097;-79
2020/12/29 06:26:08;;;;;;;26.73;17.88;;;3.00;99.90;;;;;;5074453;28;20033;-81
2020/12/29 06:28:43;;;;;;;29.27;16.65;;;3.00;99.90;;;;;;5074193;28;20020;-80
2020/12/29 06:31:10;;;;;;;30.88;17.50;;;3.00;99.90;;;;;;5074042;28;20024;-80
2020/12/29 06:33:38;;;;;;;31.80;19.23;;;3.00;99.90;;;;;;5056049;28;20024;-80
2020/12/29 06:36:06;;;;;;;29.90;17.80;;;2.90;99.90;;;;;;5073862;28;20027;-80
2020/12/29 06:38:33;;;;;;;27.50;17.63;;;2.90;99.90;;;;;;5056798;28;20544;-79
2020/12/29 06:41:00;;;;;;;26.65;16.52;;;2.80;99.90;;;;;;5073923;28;20025;-80
2020/12/29 06:43:26;;;;;;;26.50;17.05;;;2.80;99.90;;;;;;5055871;28;20039;-80
2020/12/29 06:45:52;;;;;;;27.00;16.23;;;2.80;99.90;;;;;;5056078;28;20024;-80
2020/12/29 06:48:19;;;;;;;25.90;15.73;;;2.80;99.90;;;;;;5056008;28;20052;-79
2020/12/29 06:50:45;;;;;;;29.67;15.30;;;2.70;99.90;;;;;;5073641;28;20028;-80
2020/12/29 06:53:18;;;;;;;20.63;13.90;;;2.70;99.90;;;;;;5073795;28;20035;-79
2020/12/29 06:55:45;;;;;;;23.85;13.85;;;2.70;99.90;;;;;;5073791;28;20024;-79
2020/12/29 06:58:32;;;;;;;20.80;13.43;;;2.70;99.90;;;;;;5055728;28;20063;-80
2020/12/29 07:01:26;;;;;;;21.70;13.85;;;2.70;99.90;;;;;;5055709;28;20024;-80
2020/12/29 07:04:06;;;;;;;22.92;14.05;;;2.60;99.90;;;;;;5073454;28;20043;-80
2020/12/29 07:06:36;;;;;;;20.15;13.75;;;2.60;99.90;;;;;;5073283;28;20090;-80
2020/12/29 07:09:23;;;;;;;20.15;13.65;;;2.60;99.90;;;;;;5073349;28;20033;-80
2020/12/29 07:12:09;;;;;;;16.17;11.38;;;2.60;99.90;;;;;;5073068;28;20480;-79
2020/12/29 07:14:35;;;;;;;18.75;13.13;;;2.50;99.90;;;;;;5073198;28;20070;-80
2020/12/29 07:17:05;;;;;;;16.77;11.55;;;2.50;99.90;;;;;;5073224;28;20400;-81
2020/12/29 07:19:31;;;;;;;20.20;11.52;;;2.50;99.90;;;;;;5055507;28;20506;-81
2020/12/29 07:21:57;;;;;;;16.65;11.05;;;2.50;99.90;;;;;;5055116;28;20025;-80
2020/12/29 07:24:27;;;;;;;16.52;10.95;;;2.40;99.90;;;;;;5054940;28;20575;-81
2020/12/29 07:26:57;;;;;;;18.92;11.68;;;2.40;99.90;;;;;;5073337;28;20033;-81
2020/12/29 07:29:22;;;;;;;15.98;10.35;;;2.40;99.90;;;;;;5073180;28;20031;-81
2020/12/29 07:31:49;;;;;;;16.35;10.50;;;2.40;99.90;;;;;;5072912;28;20392;-80
2020/12/29 07:34:14;;;;;;;12.65;9.55;;;2.40;99.90;;;;;;5054761;28;20032;-80
2020/12/29 07:36:48;;;;;;;14.73;10.52;;;2.40;99.90;;;;;;5055093;28;20031;-80
2020/12/29 07:39:16;;;;;;;17.52;11.45;;;2.40;99.90;;;;;;5054669;28;20396;-80
2020/12/29 07:41:42;;;;;;;18.30;10.60;;;2.40;99.90;;;;;;5054168;28;20028;-80
2020/12/29 07:44:08;;;;;;;14.38;10.32;;;2.30;99.90;;;;;;5072630;28;20027;-80
2020/12/29 07:46:34;;;;;;;12.27;9.38;;;2.40;99.90;;;;;;5054753;28;20028;-80
2020/12/29 07:49:00;;;;;;;13.88;9.88;;;2.30;99.90;;;;;;5072681;28;20021;-81
2020/12/29 07:51:26;;;;;;;13.68;9.75;;;2.30;99.90;;;;;;5072450;28;20042;-81
2020/12/29 07:53:52;;;;;;;13.82;9.70;;;2.40;99.90;;;;;;5072343;28;20087;-80
2020/12/29 07:56:19;;;;;;;12.00;9.02;;;2.30;99.90;;;;;;5072276;28;20071;-80
2020/12/29 07:58:44;;;;;;;13.85;9.68;;;2.30;99.90;;;;;;5072459;28;20040;-80
2020/12/29 08:01:11;;;;;;;13.77;9.55;;;2.40;99.90;;;;;;5069624;28;20033;-80
2020/12/29 08:03:38;;;;;;;11.10;8.73;;;2.30;99.90;;;;;;5071817;28;20082;-80
2020/12/29 08:06:12;;;;;;;13.60;8.70;;;2.30;99.90;;;;;;5072172;28;20511;-80
2020/12/29 08:08:40;;;;;;;12.30;7.70;;;2.30;99.90;;;;;;5054266;28;20056;-80
2020/12/29 08:11:07;;;;;;;9.55;7.60;;;2.30;99.90;;;;;;5071921;28;20505;-80
2020/12/29 08:13:33;;;;;;;10.10;6.78;;;2.30;99.90;;;;;;5053684;28;20038;-81
2020/12/29 08:15:58;;;;;;;10.63;7.75;;;2.30;99.90;;;;;;5053922;28;20023;-80
2020/12/29 08:18:24;;;;;;;9.15;6.57;;;2.30;99.90;;;;;;5071262;28;20457;-80
2020/12/29 08:20:57;;;;;;;10.55;6.78;;;2.20;99.90;;;;;;5053756;28;20109;-79
2020/12/29 08:23:24;;;;;;;;;;;2.20;99.90;;;;;;5072414;28;20020;-80
2020/12/29 08:25:50;;;;;;;9.60;6.60;;;2.20;99.90;;;;;;5071905;28;20364;-81
2020/12/29 08:28:16;;;;;;;10.98;7.15;;;2.20;99.90;;;;;;5071618;28;20036;-80
2020/12/29 08:30:42;;;;;;;8.60;6.47;;;2.30;99.90;;;;;;5053563;28;20691;-79
2020/12/29 08:33:08;;;;;;;9.38;6.20;;;2.20;99.90;;;;;;5053572;28;20133;-81
2020/12/29 08:35:58;;;;;;;7.53;6.07;;;2.20;99.90;;;;;;5071800;28;20025;-80
2020/12/29 08:38:26;;;;;;;7.00;5.32;;;2.10;99.90;;;;;;5071857;28;20388;-81
2020/12/29 08:41:18;;;;;;;5.72;5.05;;;2.10;99.90;;;;;;5071437;28;20048;-80
2020/12/29 08:43:49;;;;;;;7.75;5.38;;;2.00;99.90;;;;;;5024176;28;20051;-81
2020/12/29 08:46:17;;;;;;;8.27;5.82;;;2.10;99.90;;;;;;5071535;28;20020;-79
2020/12/29 08:49:00;;;;;;;8.35;5.65;;;2.00;99.90;;;;;;5071677;28;20370;-80
2020/12/29 08:51:46;;;;;;;7.72;6.00;;;2.10;99.90;;;;;;5071383;28;20400;-80
2020/12/29 08:54:14;;;;;;;8.07;6.38;;;2.10;99.90;;;;;;5049889;28;20505;-80
2020/12/29 08:56:40;;;;;;;8.23;6.15;;;2.20;99.90;;;;;;5049130;28;20400;-81
2020/12/29 08:59:11;;;;;;;8.50;5.75;;;2.10;99.90;;;;;;5071452;28;20103;-80
2020/12/29 09:01:38;;;;;;;16.67;9.05;;;2.10;99.90;;;;;;5071811;28;20070;-80
2020/12/29 09:04:30;;;;;;;26.75;11.98;;;2.10;99.90;;;;;;5071297;28;20040;-80
2020/12/29 09:07:00;;;;;;;10.60;7.22;;;2.10;99.90;;;;;;5071800;28;20480;-80
2020/12/29 09:09:26;;;;;;;10.07;7.13;;;2.10;99.90;;;;;;5071541;28;20032;-80
2020/12/29 09:12:15;;;;;;;11.57;8.07;;;2.10;99.90;;;;;;5071543;28;20078;-81
2020/12/29 09:15:01;;;;;;;15.02;7.75;;;2.00;99.90;;;;;;5071147;28;20036;-80
2020/12/29 09:17:29;;;;;;;9.27;6.53;;;2.10;99.90;;;;;;5053777;28;20563;-80
2020/12/29 09:20:22;;;;;;;10.18;7.20;;;2.10;99.90;;;;;;5071636;28;20060;-80
2020/12/29 09:23:07;;;;;;;16.55;9.60;;;2.10;99.90;;;;;;5053469;28;20082;-81
2020/12/29 09:25:37;;;;;;;15.90;9.05;;;2.10;99.90;;;;;;5053339;28;20021;-80
2020/12/29 09:28:17;;;;;;;13.43;9.43;;;2.10;99.90;;;;;;5053399;28;20492;-81
2020/12/29 09:30:45;;;;;;;10.65;6.97;;;2.10;99.90;;;;;;5055764;28;20024;-81
2020/12/29 09:33:12;;;;;;;12.18;8.43;;;2.20;99.90;;;;;;5075341;28;20033;-80
2020/12/29 09:35:37;;;;;;;10.57;8.20;;;2.10;99.90;;;;;;5075075;28;20063;-81
2020/12/29 09:38:03;;;;;;;9.55;6.93;;;2.10;99.90;;;;;;5075605;28;20052;-80
2020/12/29 09:40:29;;;;;;;10.32;7.35;;;2.10;99.90;;;;;;5057655;28;20042;-80
2020/12/29 09:42:55;;;;;;;8.23;6.13;;;2.20;99.90;;;;;;5075252;28;20392;-80
2020/12/29 09:45:23;;;;;;;10.02;7.47;;;2.20;99.90;;;;;;5075227;28;20107;-79
2020/12/29 09:47:49;;;;;;;10.75;7.53;;;2.20;99.90;;;;;;5075185;28;20388;-81
2020/12/29 09:50:15;;;;;;;9.52;7.03;;;2.30;99.90;;;;;;5057405;28;20036;-80
2020/12/29 09:52:41;;;;;;;9.15;7.28;;;2.30;99.90;;;;;;5075019;28;20430;-83
2020/12/29 09:55:07;;;;;;;9.45;7.70;;;2.40;99.90;;;;;;5075035;28;20108;-82
2020/12/29 09:57:33;;;;;;;10.68;8.07;;;2.30;99.90;;;;;;5074859;28;20055;-81
2020/12/29 09:59:58;;;;;;;13.68;8.85;;;2.30;99.90;;;;;;5075131;28;20155;-81
2020/12/29 10:02:24;;;;;;;9.68;7.10;;;2.30;99.90;;;;;;5074821;28;20507;-80
2020/12/29 10:04:50;;;;;;;15.07;10.95;;;2.30;99.90;;;;;;5056782;28;20028;-81
2020/12/29 10:07:16;;;;;;;9.63;7.53;;;2.40;99.90;;;;;;5074904;28;20029;-80
2020/12/29 10:09:41;;;;;;;13.52;11.50;;;2.40;99.90;;;;;;5074900;28;20033;-80
2020/12/29 10:12:07;;;;;;;9.55;7.70;;;2.40;99.90;;;;;;5069891;28;20024;-81
2020/12/29 10:14:32;;;;;;;9.07;7.03;;;2.50;99.90;;;;;;5071817;28;20523;-81
2020/12/29 10:16:58;;;;;;;7.80;6.43;;;2.50;99.90;;;;;;5067696;28;20431;-81
2020/12/29 10:19:24;;;;;;;9.68;7.97;;;2.50;99.90;;;;;;5073802;28;20540;-82
2020/12/29 10:21:51;;;;;;;9.43;6.93;;;2.50;99.90;;;;;;5056268;28;20047;-80
2020/12/29 10:24:16;;;;;;;10.73;7.45;;;2.50;99.90;;;;;;5074353;28;20031;-81
2020/12/29 10:26:42;;;;;;;10.00;7.45;;;2.50;99.90;;;;;;5073627;28;20393;-80
2020/12/29 10:29:07;;;;;;;8.65;7.28;;;2.50;99.90;;;;;;5052313;28;20064;-79
2020/12/29 10:31:33;;;;;;;9.18;6.95;;;2.60;99.90;;;;;;5073213;28;20047;-80
2020/12/29 10:34:02;;;;;;;8.90;6.18;;;2.60;99.90;;;;;;5073611;28;20029;-81
2020/12/29 10:36:35;;;;;;;9.43;6.90;;;2.60;99.90;;;;;;5073941;28;20027;-80
2020/12/29 10:39:02;;;;;;;10.07;6.93;;;2.70;99.90;;;;;;5074152;28;20035;-81
2020/12/29 10:41:32;;;;;;;10.55;7.05;;;2.70;99.90;;;;;;5072933;28;20059;-82
2020/12/29 10:43:58;;;;;;;9.35;6.82;;;2.70;99.90;;;;;;5073873;28;20024;-81
2020/12/29 10:46:24;;;;;;;8.73;6.45;;;2.70;99.90;;;;;;5074249;28;20048;-81
2020/12/29 10:48:50;;;;;;;8.13;6.90;;;2.70;99.90;;;;;;5074061;28;20388;-80
2020/12/29 10:51:20;;;;;;;9.48;6.57;;;2.70;99.90;;;;;;5074223;28;20024;-80
2020/12/29 10:53:46;;;;;;;10.25;7.57;;;2.70;99.90;;;;;;5055687;28;20637;-81
2020/12/29 10:56:11;;;;;;;9.00;6.45;;;2.60;99.90;;;;;;5073112;28;20028;-81
2020/12/29 10:58:39;;;;;;;8.30;6.75;;;2.60;99.90;;;;;;5072872;28;20032;-81
2020/12/29 11:01:05;;;;;;;10.60;6.82;;;2.50;99.90;;;;;;5055940;28;20162;-80
2020/12/29 11:03:31;;;;;;;8.70;6.68;;;2.50;99.90;;;;;;5073922;28;20040;-80
2020/12/29 11:05:57;;;;;;;8.77;6.60;;;2.50;99.90;;;;;;5055741;28;20025;-81
2020/12/29 11:08:25;;;;;;;7.88;6.50;;;2.60;99.90;;;;;;5073697;28;20031;-80
2020/12/29 11:10:51;;;;;;;10.32;6.57;;;2.60;99.90;;;;;;5073742;28;20029;-80
2020/12/29 11:13:17;;;;;;;6.68;5.43;;;2.70;99.90;;;;;;5073253;28;20085;-80
2020/12/29 11:15:42;;;;;;;7.28;5.72;;;2.70;99.90;;;;;;5055636;28;20543;-80
2020/12/29 11:18:08;;;;;;;7.80;6.43;;;2.80;99.90;;;;;;5073456;28;20025;-81
2020/12/29 11:20:33;;;;;;;8.70;6.13;;;2.80;99.90;;;;;;5073232;28;20052;-81
2020/12/29 11:23:00;;;;;;;7.15;5.80;;;2.90;99.90;;;;;;5055548;28;20074;-80
2020/12/29 11:25:25;;;;;;;8.30;6.55;;;2.90;99.90;;;;;;5073305;28;20028;-81
2020/12/29 11:27:51;;;;;;;7.78;6.18;;;2.90;99.90;;;;;;5073013;28;20037;-80
2020/12/29 11:30:16;;;;;;;8.30;6.07;;;2.90;99.90;;;;;;5055528;28;20067;-81
2020/12/29 11:32:42;;;;;;;9.52;5.82;;;2.90;99.90;;;;;;5055503;28;20021;-82
2020/12/29 11:35:08;;;;;;;6.90;4.85;;;3.00;99.90;;;;;;5072747;28;20031;-80
2020/12/29 11:37:33;;;;;;;6.60;4.90;;;3.00;99.90;;;;;;5073223;28;20507;-80
2020/12/29 11:39:59;;;;;;;7.47;6.15;;;3.00;99.90;;;;;;5055282;28;20058;-81
2020/12/29 11:42:26;;;;;;;7.43;5.40;;;3.00;99.90;;;;;;5072848;28;20021;-81
2020/12/29 11:44:52;;;;;;;7.03;5.57;;;3.00;99.90;;;;;;5054874;28;20028;-80
2020/12/29 11:47:17;;;;;;;7.25;5.40;;;3.10;99.90;;;;;;5073072;28;20492;-80
2020/12/29 11:49:43;;;;;;;6.72;5.38;;;3.10;99.90;;;;;;5073097;28;20509;-81
2020/12/29 11:52:08;;;;;;;9.07;5.60;;;3.10;99.90;;;;;;5072637;28;20476;-81
2020/12/29 11:54:34;;;;;;;6.13;5.32;;;3.10;99.90;;;;;;5071705;28;20060;-81
2020/12/29 11:57:00;;;;;;;5.90;5.22;;;3.10;99.90;;;;;;5054517;28;20035;-81
2020/12/29 11:59:25;;;;;;;7.70;6.20;;;3.10;99.90;;;;;;5054912;28;20016;-81
2020/12/29 12:01:51;;;;;;;6.97;6.28;;;3.20;99.90;;;;;;5072767;28;20028;-81
2020/12/29 12:04:16;;;;;;;8.45;6.00;;;3.00;99.90;;;;;;5072366;28;20024;-81
2020/12/29 12:06:45;;;;;;;7.72;6.05;;;3.00;99.90;;;;;;5054823;28;20029;-81
2020/12/29 12:09:12;;;;;;;7.75;6.75;;;2.90;99.90;;;;;;5054717;28;20024;-81
2020/12/29 12:11:38;;;;;;;8.02;6.25;;;2.90;99.90;;;;;;5054188;28;20020;-81
2020/12/29 12:14:03;;;;;;;9.82;7.07;;;2.90;99.90;;;;;;5072028;28;20047;-81
2020/12/29 12:16:29;;;;;;;8.48;7.03;;;2.80;99.90;;;;;;5054675;28;20485;-81
2020/12/29 12:18:55;;;;;;;9.63;7.00;;;2.60;99.90;;;;;;5072299;28;20373;-81
2020/12/29 12:21:31;;;;;;;10.07;7.63;;;2.60;99.90;;;;;;5054502;28;20028;-81
2020/12/29 12:23:58;;;;;;;8.85;6.97;;;2.50;99.90;;;;;;5053934;28;20028;-80
2020/12/29 12:26:24;;;;;;;9.82;6.70;;;2.50;99.90;;;;;;5072282;28;20060;-81
2020/12/29 12:28:50;;;;;;;8.93;7.10;;;2.50;99.90;;;;;;5071878;28;20043;-80
2020/12/29 12:31:16;;;;;;;9.15;6.85;;;2.60;99.90;;;;;;5072193;28;20028;-81
2020/12/29 12:33:42;;;;;;;10.38;7.28;;;2.70;99.90;;;;;;5071776;28;20036;-81
2020/12/29 12:36:08;;;;;;;8.43;6.70;;;2.70;99.90;;;;;;5072300;28;20028;-81
2020/12/29 12:38:34;;;;;;;8.45;7.05;;;2.80;99.90;;;;;;5053886;28;20381;-81
2020/12/29 12:41:00;;;;;;;10.43;7.50;;;2.80;99.90;;;;;;5054195;28;20029;-81
2020/12/29 12:43:26;;;;;;;11.38;7.20;;;2.70;99.90;;;;;;5071703;28;20029;-82
2020/12/29 12:45:51;;;;;;;10.77;7.57;;;2.70;99.90;;;;;;5071858;28;20021;-81